createdAt,value
2018-02-21T00:00:40.523Z,41.06
2018-02-21T00:01:40.511Z,41.03
2018-02-21T00:02:40.509Z,40.98
2018-02-21T00:03:40.681Z,41
2018-02-21T00:04:40.536Z,41.07
2018-02-21T00:05:40.512Z,41.04
2018-02-21T00:06:40.529Z,41.07
2018-02-21T00:07:40.520Z,40.96
2018-02-21T00:08:40.514Z,41
2018-02-21T00:09:40.502Z,41.01
2018-02-21T00:10:40.534Z,40.95
2018-02-21T00:11:40.507Z,41.05
2018-02-21T00:12:40.513Z,40.98
2018-02-21T00:13:40.520Z,40.94
2018-02-21T00:14:40.516Z,40.96
2018-02-21T00:15:40.501Z,40.98
2018-02-21T00:16:40.536Z,40.98
2018-02-21T00:17:40.522Z,41.06
2018-02-21T00:18:40.503Z,41.07
2018-02-21T00:19:40.515Z,41.11
2018-02-21T00:20:40.517Z,41.07
2018-02-21T00:21:40.518Z,41.05
2018-02-21T00:22:40.519Z,41.02
2018-02-21T00:23:40.507Z,41.02
2018-02-21T00:24:40.563Z,40.98
2018-02-21T00:25:40.502Z,41.02
2018-02-21T00:26:40.499Z,40.97
2018-02-21T00:27:40.499Z,41.02
2018-02-21T00:28:40.504Z,40.99
2018-02-21T00:29:40.501Z,40.97
2018-02-21T00:30:40.499Z,40.99
2018-02-21T00:31:40.515Z,40.98
2018-02-21T00:32:40.502Z,41.06
2018-02-21T00:33:40.502Z,41.05
2018-02-21T00:34:40.516Z,40.98
2018-02-21T00:35:40.510Z,40.99
2018-02-21T00:36:40.508Z,41.03
2018-02-21T00:37:40.514Z,41.03
2018-02-21T00:38:40.509Z,40.95
2018-02-21T00:39:40.493Z,40.96
2018-02-21T00:40:40.492Z,40.96
2018-02-21T00:41:40.524Z,41
2018-02-21T00:42:40.509Z,41.01
2018-02-21T00:43:40.539Z,40.99
2018-02-21T00:44:40.498Z,41
2018-02-21T00:45:40.595Z,40.99
2018-02-21T00:46:40.499Z,41.02
2018-02-21T00:47:40.568Z,41
2018-02-21T00:48:40.498Z,40.97
2018-02-21T00:49:40.531Z,41.01
2018-02-21T00:50:40.501Z,41
2018-02-21T00:51:40.492Z,41
2018-02-21T00:52:40.555Z,40.99
2018-02-21T00:53:40.499Z,41
2018-02-21T00:54:40.502Z,41
2018-02-21T00:55:40.526Z,40.96
2018-02-21T00:56:40.488Z,41.04
2018-02-21T00:57:40.500Z,41.01
2018-02-21T00:58:40.500Z,40.97
2018-02-21T00:59:40.509Z,41.04
2018-02-21T01:00:40.509Z,40.99
2018-02-21T01:01:40.481Z,41.11
2018-02-21T01:02:40.483Z,41.03
2018-02-21T01:03:40.494Z,40.99
2018-02-21T01:04:40.493Z,40.9
2018-02-21T01:05:40.512Z,41.03
2018-02-21T01:06:40.496Z,40.98
2018-02-21T01:07:40.492Z,41.03
2018-02-21T01:08:40.523Z,41.07
2018-02-21T01:09:40.477Z,41.06
2018-02-21T01:10:40.504Z,41.07
2018-02-21T01:11:40.487Z,41.05
2018-02-21T01:12:40.474Z,41.05
2018-02-21T01:13:40.489Z,41.04
2018-02-21T01:14:40.503Z,41.01
2018-02-21T01:15:40.478Z,41.05
2018-02-21T01:16:40.494Z,40.98
2018-02-21T01:17:40.494Z,41.07
2018-02-21T01:18:40.500Z,41.03
2018-02-21T01:19:40.484Z,40.99
2018-02-21T01:20:40.485Z,41.07
2018-02-21T01:21:40.488Z,41
2018-02-21T01:22:40.475Z,41.05
2018-02-21T01:23:40.481Z,41.01
2018-02-21T01:24:40.493Z,41.05
2018-02-21T01:25:40.515Z,41.06
2018-02-21T01:26:40.478Z,41.02
2018-02-21T01:27:40.531Z,41.01
2018-02-21T01:28:40.489Z,41.04
2018-02-21T01:29:40.476Z,41.01
2018-02-21T01:30:40.481Z,41.01
2018-02-21T01:31:40.485Z,41.04
2018-02-21T01:32:40.484Z,41.01
2018-02-21T01:33:40.472Z,41.05
2018-02-21T01:34:40.489Z,41.11
2018-02-21T01:35:40.474Z,41.07
2018-02-21T01:36:40.484Z,41.06
2018-02-21T01:37:40.490Z,41.09
2018-02-21T01:38:40.473Z,41.08
2018-02-21T01:39:40.496Z,41.06
2018-02-21T01:40:40.483Z,40.99
2018-02-21T01:41:40.461Z,40.99
2018-02-21T01:42:40.486Z,41.12
2018-02-21T01:43:40.475Z,41.04
2018-02-21T01:44:40.480Z,41.05
2018-02-21T01:45:40.500Z,41.02
2018-02-21T01:46:40.485Z,41.06
2018-02-21T01:47:40.497Z,41.08
2018-02-21T01:48:40.489Z,41.03
2018-02-21T01:49:40.472Z,41.08
2018-02-21T01:50:40.471Z,41.06
2018-02-21T01:51:40.500Z,41.02
2018-02-21T01:52:40.494Z,41
2018-02-21T01:53:40.492Z,41.03
2018-02-21T01:54:40.470Z,41.05
2018-02-21T01:55:40.455Z,41.08
2018-02-21T01:56:40.471Z,41.1
2018-02-21T01:57:40.470Z,41.16
2018-02-21T01:58:40.486Z,41.05
2018-02-21T01:59:40.488Z,41.05
2018-02-21T02:00:40.463Z,41.1
2018-02-21T02:01:40.464Z,41.05
2018-02-21T02:02:40.484Z,41.06
2018-02-21T02:03:40.479Z,41
2018-02-21T02:04:40.450Z,41
2018-02-21T02:05:40.462Z,41.04
2018-02-21T02:06:40.484Z,41.13
2018-02-21T02:07:40.482Z,41.05
2018-02-21T02:08:40.476Z,41.1
2018-02-21T02:09:40.492Z,41.09
2018-02-21T02:10:40.463Z,41.13
2018-02-21T02:11:40.467Z,41.07
2018-02-21T02:12:40.453Z,41.1
2018-02-21T02:13:40.466Z,41.14
2018-02-21T02:14:40.479Z,41.07
2018-02-21T02:15:40.476Z,41.06
2018-02-21T02:16:40.484Z,41.07
2018-02-21T02:17:40.463Z,41.1
2018-02-21T02:18:40.510Z,41.06
2018-02-21T02:19:40.503Z,41.1
2018-02-21T02:20:40.504Z,41.03
2018-02-21T02:21:40.485Z,41.13
2018-02-21T02:22:40.453Z,41.01
2018-02-21T02:23:40.470Z,41.03
2018-02-21T02:24:40.459Z,41.11
2018-02-21T02:25:40.486Z,41.11
2018-02-21T02:26:40.455Z,41.09
2018-02-21T02:27:40.454Z,41.1
2018-02-21T02:28:40.472Z,41.02
2018-02-21T02:29:40.461Z,41.12
2018-02-21T02:30:40.516Z,41.09
2018-02-21T02:31:40.489Z,41.1
2018-02-21T02:32:40.496Z,41.1
2018-02-21T02:33:40.453Z,41.04
2018-02-21T02:34:40.492Z,41.15
2018-02-21T02:35:40.462Z,41.1
2018-02-21T02:36:40.487Z,41.13
2018-02-21T02:37:40.455Z,41.12
2018-02-21T02:38:40.475Z,41.12
2018-02-21T02:39:40.479Z,41.1
2018-02-21T02:40:40.452Z,41.08
2018-02-21T02:41:40.499Z,41.08
2018-02-21T02:42:40.495Z,41.09
2018-02-21T02:43:40.437Z,41.09
2018-02-21T02:44:40.455Z,41.03
2018-02-21T02:45:40.494Z,41.03
2018-02-21T02:46:40.577Z,41.07
2018-02-21T02:47:40.535Z,41.08
2018-02-21T02:48:40.446Z,41.09
2018-02-21T02:49:40.470Z,41.04
2018-02-21T02:50:40.460Z,41.04
2018-02-21T02:51:40.474Z,41.08
2018-02-21T02:52:40.477Z,41.04
2018-02-21T02:53:40.469Z,41.1
2018-02-21T02:54:40.470Z,41.09
2018-02-21T02:55:40.468Z,41.07
2018-02-21T02:56:40.479Z,41.08
2018-02-21T02:57:40.487Z,41.05
2018-02-21T02:58:40.449Z,41.07
2018-02-21T02:59:40.494Z,41.12
2018-02-21T03:00:40.471Z,41.1
2018-02-21T03:01:40.467Z,41.09
2018-02-21T03:02:40.498Z,41.15
2018-02-21T03:03:40.453Z,41.11
2018-02-21T03:04:40.449Z,41.06
2018-02-21T03:05:40.474Z,41.11
2018-02-21T03:06:40.453Z,41.09
2018-02-21T03:07:40.474Z,41.09
2018-02-21T03:08:40.455Z,41.06
2018-02-21T03:09:40.445Z,41.02
2018-02-21T03:10:40.448Z,41
2018-02-21T03:11:40.441Z,41.1
2018-02-21T03:12:40.547Z,41.02
2018-02-21T03:13:40.476Z,41.05
2018-02-21T03:14:40.443Z,41.04
2018-02-21T03:15:40.438Z,41.06
2018-02-21T03:16:40.444Z,41.08
2018-02-21T03:17:40.499Z,41.07
2018-02-21T03:18:40.448Z,41.07
2018-02-21T03:19:40.447Z,41.07
2018-02-21T03:20:40.541Z,41.03
2018-02-21T03:21:40.437Z,41.06
2018-02-21T03:22:40.932Z,41.11
2018-02-21T03:23:40.455Z,41.13
2018-02-21T03:24:40.467Z,41.06
2018-02-21T03:25:40.440Z,41.06
2018-02-21T03:26:40.479Z,41.07
2018-02-21T03:27:40.457Z,41.03
2018-02-21T03:28:40.434Z,41.07
2018-02-21T03:29:40.473Z,41.04
2018-02-21T03:30:40.449Z,41.13
2018-02-21T03:31:40.435Z,41.08
2018-02-21T03:32:40.444Z,41.07
2018-02-21T03:33:40.438Z,41.01
2018-02-21T03:34:40.461Z,41.08
2018-02-21T03:35:40.443Z,41.17
2018-02-21T03:36:40.438Z,41.11
2018-02-21T03:37:40.429Z,41.08
2018-02-21T03:38:40.435Z,41.09
2018-02-21T03:39:40.436Z,41.05
2018-02-21T03:40:40.445Z,41.09
2018-02-21T03:41:40.439Z,41.12
2018-02-21T03:42:40.457Z,41.1
2018-02-21T03:43:40.449Z,41.17
2018-02-21T03:44:40.434Z,41.1
2018-02-21T03:45:40.442Z,41.1
2018-02-21T03:46:40.440Z,41.07
2018-02-21T03:47:40.431Z,41.13
2018-02-21T03:48:40.442Z,41.04
2018-02-21T03:49:40.434Z,41.05
2018-02-21T03:50:40.444Z,41.09
2018-02-21T03:51:40.453Z,41.09
2018-02-21T03:52:40.430Z,41.13
2018-02-21T03:53:40.439Z,41.1
2018-02-21T03:54:40.432Z,41.11
2018-02-21T03:55:40.453Z,41.07
2018-02-21T03:56:40.412Z,41.12
2018-02-21T03:57:40.416Z,41.07
2018-02-21T03:58:40.426Z,41.09
2018-02-21T03:59:40.426Z,41.1
2018-02-21T04:00:40.424Z,41.1
2018-02-21T04:01:40.425Z,41.14
2018-02-21T04:02:40.412Z,41.13
2018-02-21T04:03:40.430Z,41.07
2018-02-21T04:04:40.461Z,41.05
2018-02-21T04:05:40.419Z,41.14
2018-02-21T04:06:40.441Z,41.1
2018-02-21T04:07:40.421Z,41.14
2018-02-21T04:08:40.435Z,41.14
2018-02-21T04:09:40.688Z,41.19
2018-02-21T04:10:40.415Z,41.18
2018-02-21T04:11:40.418Z,41.21
2018-02-21T04:12:40.440Z,41.2
2018-02-21T04:13:40.427Z,41.11
2018-02-21T04:14:40.488Z,41.12
2018-02-21T04:15:40.455Z,41.2
2018-02-21T04:16:40.429Z,41.15
2018-02-21T04:17:40.428Z,41.16
2018-02-21T04:18:40.433Z,41.15
2018-02-21T04:19:40.446Z,41.18
2018-02-21T04:20:40.424Z,41.13
2018-02-21T04:21:40.412Z,41.21
2018-02-21T04:22:40.423Z,41.17
2018-02-21T04:23:40.398Z,41.18
2018-02-21T04:24:40.438Z,41.16
2018-02-21T04:25:40.449Z,41.2
2018-02-21T04:26:40.409Z,41.16
2018-02-21T04:27:40.412Z,41.2
2018-02-21T04:28:40.408Z,41.1
2018-02-21T04:29:40.450Z,41.12
2018-02-21T04:30:40.417Z,41.21
2018-02-21T04:31:40.407Z,41.17
2018-02-21T04:32:40.442Z,41.18
2018-02-21T04:33:40.414Z,41.12
2018-02-21T04:34:40.708Z,41.22
2018-02-21T04:35:40.438Z,41.1
2018-02-21T04:36:40.416Z,41.16
2018-02-21T04:37:40.419Z,41.13
2018-02-21T04:38:40.420Z,41.17
2018-02-21T04:39:40.417Z,41.2
2018-02-21T04:40:40.434Z,41.14
2018-02-21T04:41:40.422Z,41.14
2018-02-21T04:42:40.447Z,41.14
2018-02-21T04:43:40.423Z,41.2
2018-02-21T04:44:40.442Z,41.12
2018-02-21T04:45:40.438Z,41.18
2018-02-21T04:46:40.390Z,41.16
2018-02-21T04:47:40.505Z,41.12
2018-02-21T04:48:40.408Z,41.13
2018-02-21T04:49:40.415Z,41.14
2018-02-21T04:50:40.443Z,41.12
2018-02-21T04:51:40.415Z,41.17
2018-02-21T04:52:40.440Z,41.16
2018-02-21T04:53:40.412Z,41.13
2018-02-21T04:54:40.403Z,41.13
2018-02-21T04:55:40.427Z,41.15
2018-02-21T04:56:40.409Z,41.17
2018-02-21T04:57:40.413Z,41.16
2018-02-21T04:58:40.416Z,41.18
2018-02-21T04:59:40.429Z,41.15
2018-02-21T05:00:40.662Z,41.12
2018-02-21T05:01:40.407Z,41.17
2018-02-21T05:02:40.416Z,41.23
2018-02-21T05:03:40.395Z,41.2
2018-02-21T05:04:40.410Z,41.23
2018-02-21T05:05:40.444Z,41.33
2018-02-21T05:06:40.435Z,41.38
2018-02-21T05:07:40.412Z,41.29
2018-02-21T05:08:40.419Z,41.42
2018-02-21T05:09:40.420Z,41.24
2018-02-21T05:10:40.430Z,41.45
2018-02-21T05:11:40.409Z,41.44
2018-02-21T05:12:40.401Z,41.49
2018-02-21T05:13:40.398Z,41.49
2018-02-21T05:14:40.393Z,41.58
2018-02-21T05:15:40.411Z,41.59
2018-02-21T05:16:40.414Z,41.51
2018-02-21T05:17:40.392Z,41.62
2018-02-21T05:18:40.396Z,41.65
2018-02-21T05:19:40.413Z,41.61
2018-02-21T05:20:40.397Z,41.66
2018-02-21T05:21:40.397Z,41.69
2018-02-21T05:22:40.393Z,41.65
2018-02-21T05:23:40.392Z,41.63
2018-02-21T05:24:40.394Z,41.62
2018-02-21T05:25:40.423Z,41.64
2018-02-21T05:26:40.409Z,41.55
2018-02-21T05:27:40.394Z,41.57
2018-02-21T05:28:40.394Z,41.57
2018-02-21T05:29:40.404Z,41.52
2018-02-21T05:30:40.429Z,41.52
2018-02-21T05:31:40.384Z,41.53
2018-02-21T05:32:40.406Z,41.5
2018-02-21T05:33:40.382Z,41.52
2018-02-21T05:34:40.418Z,41.49
2018-02-21T05:35:40.411Z,41.49
2018-02-21T05:36:40.409Z,41.48
2018-02-21T05:37:40.393Z,41.51
2018-02-21T05:38:40.397Z,41.5
2018-02-21T05:39:40.397Z,41.51
2018-02-21T05:40:40.421Z,41.53
2018-02-21T05:41:40.409Z,41.51
2018-02-21T05:42:40.398Z,41.49
2018-02-21T05:43:40.391Z,41.51
2018-02-21T05:44:40.380Z,41.52
2018-02-21T05:45:40.401Z,41.57
2018-02-21T05:46:40.394Z,41.54
2018-02-21T05:47:40.396Z,41.48
2018-02-21T05:48:40.427Z,41.46
2018-02-21T05:49:40.398Z,41.5
2018-02-21T05:50:40.395Z,41.53
2018-02-21T05:51:40.394Z,41.52
2018-02-21T05:52:40.426Z,41.47
2018-02-21T05:53:40.385Z,41.52
2018-02-21T05:54:40.396Z,41.51
2018-02-21T05:55:40.371Z,41.47
2018-02-21T05:56:40.393Z,41.48
2018-02-21T05:57:40.380Z,41.49
2018-02-21T05:58:40.393Z,41.49
2018-02-21T05:59:40.381Z,41.52
2018-02-21T06:00:40.463Z,41.53
2018-02-21T06:01:40.407Z,41.5
2018-02-21T06:02:40.385Z,41.51
2018-02-21T06:03:40.405Z,41.52
2018-02-21T06:04:40.414Z,41.51
2018-02-21T06:05:40.399Z,41.46
2018-02-21T06:06:40.393Z,41.51
2018-02-21T06:07:40.426Z,41.52
2018-02-21T06:08:40.428Z,41.48
2018-02-21T06:09:40.411Z,41.49
2018-02-21T06:10:40.402Z,41.47
2018-02-21T06:11:40.399Z,41.43
2018-02-21T06:12:40.451Z,41.49
2018-02-21T06:13:40.388Z,41.43
2018-02-21T06:14:40.405Z,41.44
2018-02-21T06:15:40.397Z,41.46
2018-02-21T06:16:40.420Z,41.5
2018-02-21T06:17:40.700Z,41.46
2018-02-21T06:18:40.392Z,41.46
2018-02-21T06:19:40.401Z,41.45
2018-02-21T06:20:40.374Z,41.48
2018-02-21T06:21:40.387Z,41.44
2018-02-21T06:22:40.417Z,41.41
2018-02-21T06:23:40.396Z,41.43
2018-02-21T06:24:40.402Z,41.41
2018-02-21T06:25:40.401Z,41.41
2018-02-21T06:26:40.376Z,41.35
2018-02-21T06:27:40.701Z,41.41
2018-02-21T06:28:40.393Z,41.41
2018-02-21T06:29:40.494Z,41.35
2018-02-21T06:30:40.401Z,41.34
2018-02-21T06:31:40.358Z,41.42
2018-02-21T06:32:40.423Z,41.4
2018-02-21T06:33:40.396Z,41.38
2018-02-21T06:34:40.370Z,41.28
2018-02-21T06:35:40.412Z,41.39
2018-02-21T06:36:40.378Z,41.29
2018-02-21T06:37:40.516Z,41.36
2018-02-21T06:38:40.390Z,41.32
2018-02-21T06:39:40.368Z,41.38
2018-02-21T06:40:40.358Z,41.3
2018-02-21T06:41:40.365Z,41.36
2018-02-21T06:42:40.416Z,41.37
2018-02-21T06:43:40.380Z,41.29
2018-02-21T06:44:40.379Z,41.33
2018-02-21T06:45:40.492Z,41.4
2018-02-21T06:46:40.386Z,41.4
2018-02-21T06:47:40.397Z,41.4
2018-02-21T06:48:40.483Z,41.33
2018-02-21T06:49:40.381Z,41.36
2018-02-21T06:50:40.372Z,41.32
2018-02-21T06:51:40.400Z,41.3
2018-02-21T06:52:40.390Z,41.21
2018-02-21T06:53:40.386Z,41.25
2018-02-21T06:54:40.768Z,41.34
2018-02-21T06:55:40.385Z,41.27
2018-02-21T06:56:40.390Z,41.29
2018-02-21T06:57:40.411Z,41.28
2018-02-21T06:58:40.363Z,41.26
2018-02-21T06:59:40.356Z,41.37
2018-02-21T07:00:40.373Z,41.27
2018-02-21T07:01:40.377Z,41.25
2018-02-21T07:02:40.442Z,41.25
2018-02-21T07:03:40.388Z,41.25
2018-02-21T07:04:40.361Z,41.26
2018-02-21T07:05:40.362Z,41.29
2018-02-21T07:06:40.359Z,41.28
2018-02-21T07:07:40.382Z,41.2
2018-02-21T07:08:40.365Z,41.25
2018-02-21T07:09:40.349Z,41.21
2018-02-21T07:10:40.389Z,41.2
2018-02-21T07:11:40.361Z,41.24
2018-02-21T07:12:40.363Z,41.12
2018-02-21T07:13:40.355Z,41.21
2018-02-21T07:14:40.369Z,41.24
2018-02-21T07:15:40.815Z,41.15
2018-02-21T07:16:40.364Z,41.19
2018-02-21T07:17:40.384Z,41.19
2018-02-21T07:18:40.359Z,41.23
2018-02-21T07:19:40.372Z,41.26
2018-02-21T07:20:40.705Z,41.2
2018-02-21T07:21:40.377Z,41.15
2018-02-21T07:22:40.365Z,41.12
2018-02-21T07:23:40.381Z,41.2
2018-02-21T07:24:40.357Z,41.1
2018-02-21T07:25:40.380Z,41.26
2018-02-21T07:26:40.353Z,41.17
2018-02-21T07:27:40.355Z,41.18
2018-02-21T07:28:40.631Z,41.12
2018-02-21T07:29:40.354Z,41.07
2018-02-21T07:30:40.354Z,41.1
2018-02-21T07:31:40.369Z,41.05
2018-02-21T07:32:40.350Z,41.18
2018-02-21T07:33:40.627Z,41.09
2018-02-21T07:34:40.342Z,41.07
2018-02-21T07:35:40.365Z,41.15
2018-02-21T07:36:40.384Z,41.1
2018-02-21T07:37:40.354Z,41.03
2018-02-21T07:38:40.383Z,41.14
2018-02-21T07:39:40.403Z,41.12
2018-02-21T07:40:40.353Z,41.05
2018-02-21T07:41:40.361Z,41.11
2018-02-21T07:42:40.350Z,41.06
2018-02-21T07:43:40.379Z,41.06
2018-02-21T07:44:40.353Z,41.1
2018-02-21T07:45:40.351Z,41.05
2018-02-21T07:46:40.339Z,41.04
2018-02-21T07:47:40.360Z,41.07
2018-02-21T07:48:40.354Z,41.11
2018-02-21T07:49:40.390Z,41.06
2018-02-21T07:50:40.353Z,41.03
2018-02-21T07:51:40.342Z,41.05
2018-02-21T07:52:40.342Z,41.03
2018-02-21T07:53:40.361Z,41.07
2018-02-21T07:54:40.375Z,41.04
2018-02-21T07:55:40.356Z,41
2018-02-21T07:56:40.362Z,41.11
2018-02-21T07:57:40.345Z,41.07
2018-02-21T07:58:40.344Z,41.02
2018-02-21T07:59:40.381Z,41.05
2018-02-21T08:00:40.360Z,40.93
2018-02-21T08:01:40.343Z,41.06
2018-02-21T08:02:40.345Z,41.04
2018-02-21T08:03:40.334Z,41.08
2018-02-21T08:04:40.367Z,41.09
2018-02-21T08:05:40.392Z,41.05
2018-02-21T08:06:40.343Z,41.12
2018-02-21T08:07:40.334Z,41.01
2018-02-21T08:08:40.341Z,41.12
2018-02-21T08:09:40.394Z,41
2018-02-21T08:10:40.354Z,41.08
2018-02-21T08:11:40.332Z,40.96
2018-02-21T08:12:40.354Z,41.04
2018-02-21T08:13:40.361Z,41.02
2018-02-21T08:14:40.350Z,41.01
2018-02-21T08:15:40.338Z,40.99
2018-02-21T08:16:40.345Z,41.02
2018-02-21T08:17:40.331Z,41.1
2018-02-21T08:18:40.315Z,40.96
2018-02-21T08:19:40.338Z,41.02
2018-02-21T08:20:40.358Z,41.08
2018-02-21T08:21:40.347Z,40.98
2018-02-21T08:22:40.346Z,41.02
2018-02-21T08:23:40.373Z,41.08
2018-02-21T08:24:40.326Z,41.1
2018-02-21T08:25:40.383Z,41.07
2018-02-21T08:26:40.326Z,41.01
2018-02-21T08:27:40.319Z,40.96
2018-02-21T08:28:40.340Z,41.07
2018-02-21T08:29:40.323Z,40.94
2018-02-21T08:30:40.380Z,41.06
2018-02-21T08:31:40.365Z,41.09
2018-02-21T08:32:40.350Z,41.1
2018-02-21T08:33:40.324Z,41
2018-02-21T08:34:40.823Z,40.93
2018-02-21T08:35:40.350Z,41.01
2018-02-21T08:36:40.343Z,40.92
2018-02-21T08:37:40.354Z,40.95
2018-02-21T08:38:40.345Z,40.87
2018-02-21T08:39:40.355Z,40.97
2018-02-21T08:40:40.773Z,40.91
2018-02-21T08:41:40.335Z,40.96
2018-02-21T08:42:40.359Z,41.03
2018-02-21T08:43:40.335Z,41.07
2018-02-21T08:44:40.393Z,41.05
2018-02-21T08:45:40.333Z,40.96
2018-02-21T08:46:40.306Z,40.9
2018-02-21T08:47:40.320Z,41
2018-02-21T08:48:40.338Z,41.05
2018-02-21T08:49:40.467Z,40.86
2018-02-21T08:50:40.339Z,40.96
2018-02-21T08:51:40.327Z,40.94
2018-02-21T08:52:40.339Z,40.94
2018-02-21T08:53:40.338Z,40.91
2018-02-21T08:54:40.312Z,40.85
2018-02-21T08:55:40.330Z,40.95
2018-02-21T08:56:40.330Z,40.98
2018-02-21T08:57:40.356Z,40.84
2018-02-21T08:58:40.338Z,40.89
2018-02-21T08:59:40.330Z,40.77
2018-02-21T09:00:40.321Z,40.97
2018-02-21T09:01:40.313Z,40.98
2018-02-21T09:02:40.327Z,40.81
2018-02-21T09:03:40.314Z,40.85
2018-02-21T09:04:40.336Z,40.79
2018-02-21T09:05:40.324Z,40.8
2018-02-21T09:06:40.307Z,40.88
2018-02-21T09:07:40.453Z,40.82
2018-02-21T09:08:40.318Z,40.78
2018-02-21T09:09:40.313Z,40.85
2018-02-21T09:10:40.308Z,40.99
2018-02-21T09:11:40.344Z,40.87
2018-02-21T09:12:40.342Z,40.78
2018-02-21T09:13:40.313Z,40.9
2018-02-21T09:14:40.338Z,40.96
2018-02-21T09:15:40.312Z,40.86
2018-02-21T09:16:41.201Z,40.81
2018-02-21T09:17:40.318Z,40.77
2018-02-21T09:18:40.341Z,40.86
2018-02-21T09:19:40.320Z,40.82
2018-02-21T09:20:40.328Z,40.75
2018-02-21T09:21:40.325Z,40.85
2018-02-21T09:22:40.322Z,40.78
2018-02-21T09:23:40.319Z,40.72
2018-02-21T09:24:40.312Z,40.87
2018-02-21T09:25:40.334Z,40.79
2018-02-21T09:26:40.306Z,40.72
2018-02-21T09:27:40.322Z,40.68
2018-02-21T09:28:40.358Z,40.67
2018-02-21T09:29:40.328Z,40.69
2018-02-21T09:30:40.302Z,40.78
2018-02-21T09:31:40.312Z,40.73
2018-02-21T09:32:40.355Z,40.72
2018-02-21T09:33:40.320Z,40.73
2018-02-21T09:34:40.309Z,40.69
2018-02-21T09:35:40.318Z,40.83
2018-02-21T09:36:40.315Z,40.68
2018-02-21T09:37:40.315Z,40.65
2018-02-21T09:38:40.355Z,40.73
2018-02-21T09:39:40.320Z,40.61
2018-02-21T09:40:40.314Z,40.57
2018-02-21T09:41:40.334Z,40.59
2018-02-21T09:42:40.303Z,40.59
2018-02-21T09:43:40.316Z,40.64
2018-02-21T09:44:40.305Z,40.53
2018-02-21T09:45:40.313Z,40.61
2018-02-21T09:46:40.312Z,40.55
2018-02-21T09:47:40.365Z,40.63
2018-02-21T09:48:40.314Z,40.6
2018-02-21T09:49:40.292Z,40.63
2018-02-21T09:50:40.318Z,40.7
2018-02-21T09:51:40.324Z,40.52
2018-02-21T09:52:40.299Z,40.6
2018-02-21T09:53:40.302Z,40.57
2018-02-21T09:54:40.319Z,40.56
2018-02-21T09:55:40.304Z,40.59
2018-02-21T09:56:40.466Z,40.5
2018-02-21T09:57:40.312Z,40.63
2018-02-21T09:58:40.301Z,40.57
2018-02-21T09:59:40.358Z,40.62
2018-02-21T10:00:40.313Z,40.56
2018-02-21T10:01:40.295Z,40.61
2018-02-21T10:02:40.390Z,40.61
2018-02-21T10:03:40.307Z,40.66
2018-02-21T10:04:40.332Z,40.73
2018-02-21T10:05:40.298Z,40.61
2018-02-21T10:06:40.319Z,40.61
2018-02-21T10:07:40.314Z,40.63
2018-02-21T10:08:40.309Z,40.66
2018-02-21T10:09:40.332Z,40.53
2018-02-21T10:10:40.414Z,40.55
2018-02-21T10:11:40.310Z,40.49
2018-02-21T10:12:40.323Z,40.52
2018-02-21T10:13:40.306Z,40.47
2018-02-21T10:14:40.314Z,40.4
2018-02-21T10:15:40.323Z,40.37
2018-02-21T10:16:40.291Z,40.41
2018-02-21T10:17:40.310Z,40.4
2018-02-21T10:18:40.396Z,40.29
2018-02-21T10:19:40.334Z,40.37
2018-02-21T10:20:40.354Z,40.39
2018-02-21T10:21:40.303Z,40.41
2018-02-21T10:22:40.357Z,40.38
2018-02-21T10:23:40.301Z,40.41
2018-02-21T10:24:40.392Z,40.34
2018-02-21T10:25:40.303Z,40.29
2018-02-21T10:26:40.669Z,40.4
2018-02-21T10:27:40.286Z,40.3
2018-02-21T10:28:40.458Z,40.34
2018-02-21T10:29:40.313Z,40.44
2018-02-21T10:30:40.350Z,40.32
2018-02-21T10:31:40.302Z,40.39
2018-02-21T10:32:40.330Z,40.23
2018-02-21T10:33:40.293Z,40.31
2018-02-21T10:34:40.290Z,40.26
2018-02-21T10:35:40.301Z,40.3
2018-02-21T10:36:40.292Z,40.3
2018-02-21T10:37:40.319Z,40.26
2018-02-21T10:38:40.301Z,40.28
2018-02-21T10:39:40.304Z,40.27
2018-02-21T10:40:40.293Z,40.15
2018-02-21T10:41:40.298Z,40.28
2018-02-21T10:42:40.296Z,40.18
2018-02-21T10:43:40.350Z,40.26
2018-02-21T10:44:40.294Z,40.24
2018-02-21T10:45:40.305Z,40.23
2018-02-21T10:46:40.303Z,40.15
2018-02-21T10:47:40.310Z,40.17
2018-02-21T10:48:40.414Z,40.17
2018-02-21T10:49:40.292Z,40.18
2018-02-21T10:50:40.399Z,40.19
2018-02-21T10:51:40.295Z,40.19
2018-02-21T10:52:40.302Z,40.23
2018-02-21T10:53:40.290Z,40.15
2018-02-21T10:54:40.297Z,40.19
2018-02-21T10:55:40.342Z,40.13
2018-02-21T10:56:40.295Z,40.15
2018-02-21T10:57:40.278Z,40.23
2018-02-21T10:58:40.309Z,40.21
2018-02-21T10:59:40.302Z,40.17
2018-02-21T11:00:40.285Z,40.25
2018-02-21T11:01:40.273Z,40.28
2018-02-21T11:02:40.365Z,40.33
2018-02-21T11:03:40.285Z,40.29
2018-02-21T11:04:40.276Z,40.33
2018-02-21T11:05:40.296Z,40.25
2018-02-21T11:06:40.276Z,40.31
2018-02-21T11:07:40.286Z,40.33
2018-02-21T11:08:40.290Z,40.33
2018-02-21T11:09:40.296Z,40.33
2018-02-21T11:10:40.280Z,40.37
2018-02-21T11:11:40.290Z,40.36
2018-02-21T11:12:40.287Z,40.4
2018-02-21T11:13:40.338Z,40.32
2018-02-21T11:14:40.289Z,40.4
2018-02-21T11:15:40.285Z,40.33
2018-02-21T11:16:40.299Z,40.28
2018-02-21T11:17:40.286Z,40.32
2018-02-21T11:18:40.293Z,40.36
2018-02-21T11:19:40.275Z,40.29
2018-02-21T11:20:40.278Z,40.31
2018-02-21T11:21:40.280Z,40.34
2018-02-21T11:22:40.293Z,40.4
2018-02-21T11:23:41.080Z,40.35
2018-02-21T11:24:40.274Z,40.29
2018-02-21T11:25:40.271Z,40.32
2018-02-21T11:26:40.290Z,40.37
2018-02-21T11:27:40.282Z,40.32
2018-02-21T11:28:40.280Z,40.39
2018-02-21T11:29:40.267Z,40.39
2018-02-21T11:30:40.283Z,40.29
2018-02-21T11:31:40.315Z,40.34
2018-02-21T11:32:40.266Z,40.35
2018-02-21T11:33:40.270Z,40.4
2018-02-21T11:34:40.283Z,40.35
2018-02-21T11:35:40.263Z,40.37
2018-02-21T11:36:40.287Z,40.37
2018-02-21T11:37:40.281Z,40.32
2018-02-21T11:38:40.276Z,40.31
2018-02-21T11:39:40.282Z,40.39
2018-02-21T11:40:40.261Z,40.37
2018-02-21T11:41:40.271Z,40.35
2018-02-21T11:42:40.278Z,40.32
2018-02-21T11:43:40.264Z,40.39
2018-02-21T11:44:40.279Z,40.36
2018-02-21T11:45:40.268Z,40.36
2018-02-21T11:46:40.282Z,40.44
2018-02-21T11:47:40.283Z,40.37
2018-02-21T11:48:40.277Z,40.44
2018-02-21T11:49:40.264Z,40.37
2018-02-21T11:50:40.278Z,40.36
2018-02-21T11:51:40.306Z,40.47
2018-02-21T11:52:40.256Z,40.41
2018-02-21T11:53:40.267Z,40.39
2018-02-21T11:54:40.274Z,40.44
2018-02-21T11:55:40.282Z,40.44
2018-02-21T11:56:40.271Z,40.43
2018-02-21T11:57:40.704Z,40.51
2018-02-21T11:58:40.282Z,40.39
2018-02-21T11:59:40.325Z,40.48
2018-02-21T12:00:40.275Z,40.41
2018-02-21T12:01:40.304Z,40.45
2018-02-21T12:02:40.677Z,40.43
2018-02-21T12:03:40.263Z,40.44
2018-02-21T12:04:40.370Z,40.45
2018-02-21T12:05:40.268Z,40.45
2018-02-21T12:06:40.281Z,40.46
2018-02-21T12:07:40.248Z,40.4
2018-02-21T12:08:40.247Z,40.39
2018-02-21T12:09:40.256Z,40.47
2018-02-21T12:10:40.272Z,40.49
2018-02-21T12:11:40.277Z,40.43
2018-02-21T12:12:40.296Z,40.45
2018-02-21T12:13:40.244Z,40.48
2018-02-21T12:14:40.270Z,40.43
2018-02-21T12:15:40.244Z,40.47
2018-02-21T12:16:40.288Z,40.44
2018-02-21T12:17:40.266Z,40.45
2018-02-21T12:18:40.264Z,40.44
2018-02-21T12:19:40.292Z,40.45
2018-02-21T12:20:40.266Z,40.44
2018-02-21T12:21:40.274Z,40.45
2018-02-21T12:22:40.246Z,40.44
2018-02-21T12:23:40.265Z,40.43
2018-02-21T12:24:40.252Z,40.49
2018-02-21T12:25:40.262Z,40.48
2018-02-21T12:26:40.517Z,40.45
2018-02-21T12:27:40.285Z,40.48
2018-02-21T12:28:40.251Z,40.49
2018-02-21T12:29:40.271Z,40.41
2018-02-21T12:30:40.258Z,40.44
2018-02-21T12:31:40.281Z,40.39
2018-02-21T12:32:40.256Z,40.43
2018-02-21T12:33:40.245Z,40.47
2018-02-21T12:34:40.253Z,40.41
2018-02-21T12:35:40.262Z,40.44
2018-02-21T12:36:40.257Z,40.45
2018-02-21T12:37:40.276Z,40.48
2018-02-21T12:38:40.255Z,40.45
2018-02-21T12:39:40.234Z,40.41
2018-02-21T12:40:40.788Z,40.47
2018-02-21T12:41:40.246Z,40.52
2018-02-21T12:42:40.255Z,40.43
2018-02-21T12:43:40.252Z,40.49
2018-02-21T12:44:40.242Z,40.45
2018-02-21T12:45:40.240Z,40.44
2018-02-21T12:46:40.253Z,40.43
2018-02-21T12:47:40.250Z,40.43
2018-02-21T12:48:40.254Z,40.51
2018-02-21T12:49:40.231Z,40.72
2018-02-21T12:50:40.388Z,40.24
2018-02-21T12:51:40.354Z,40.19
2018-02-21T12:52:40.266Z,40.27
2018-02-21T12:53:40.257Z,40.3
2018-02-21T12:54:40.236Z,40.28
2018-02-21T12:55:40.234Z,40.27
2018-02-21T12:56:40.262Z,40.31